Time;durP1;ratioP1;P1;durP2;ratioP2;P2;SDS_P1;SDS_P2;PMS_P1;PMS_P2;Temp;Humidity;BMP_temperature;BMP_pressure;BME280_temperature;BME280_humidity;BME280_pressure;Samples;Min_cycle;Max_cycle;Signal;HPM_P1;HPM_P2
2022/01/03 00:00:17;;;;;;;5.65;4.00;;;;;;;-0.85;70.06;99799.06;1740742;80;21117;-68
2022/01/03 00:02:44;;;;;;;5.90;3.62;;;;;;;-0.82;70.06;99787.26;1740541;81;21450;-68
2022/01/03 00:05:10;;;;;;;4.85;3.55;;;;;;;-0.81;70.10;99775.97;1729278;82;21013;-66
2022/01/03 00:07:41;;;;;;;5.60;3.83;;;;;;;-0.80;70.15;99735.72;1782456;80;22548;-66
2022/01/03 00:10:10;;;;;;;5.33;3.90;;;;;;;-0.79;70.07;99721.00;1751394;81;21562;-66
2022/01/03 00:12:38;;;;;;;5.55;3.80;;;;;;;-0.77;70.07;99716.59;1753956;81;20991;-66
2022/01/03 00:15:08;;;;;;;7.33;5.28;;;;;;;-0.75;70.10;99711.74;1748858;81;21038;-66
2022/01/03 00:17:35;;;;;;;16.30;9.30;;;;;;;-0.72;70.15;99701.69;1754759;81;21036;-67
2022/01/03 00:20:05;;;;;;;8.93;5.30;;;;;;;-0.70;70.10;99711.07;1789655;80;20987;-67
2022/01/03 00:22:38;;;;;;;6.20;4.20;;;;;;;-0.67;70.11;99703.64;1757615;80;21038;-67
2022/01/03 00:25:08;;;;;;;5.15;3.60;;;;;;;-0.64;70.10;99697.84;1757834;80;21064;-67
2022/01/03 00:27:41;;;;;;;6.60;4.12;;;;;;;-0.60;70.15;99693.35;1747262;81;21031;-68
2022/01/03 00:30:09;;;;;;;4.25;3.00;;;;;;;-0.57;70.24;99686.75;1776966;80;20955;-67
2022/01/03 00:32:37;;;;;;;5.28;3.27;;;;;;;-0.55;70.30;99671.12;1789415;80;21825;-64
2022/01/03 00:35:05;;;;;;;6.12;3.40;;;;;;;-0.52;70.40;99662.73;1766754;81;21460;-66
2022/01/03 00:37:32;;;;;;;7.80;3.62;;;;;;;-0.50;70.39;99647.09;1741796;80;21528;-66
2022/01/03 00:39:59;;;;;;;5.08;3.30;;;;;;;-0.47;70.45;99622.33;1743131;81;21014;-67
2022/01/03 00:42:25;;;;;;;4.72;3.10;;;;;;;-0.46;70.41;99611.87;1743212;81;21003;-67
2022/01/03 00:44:53;;;;;;;6.75;3.00;;;;;;;-0.43;70.40;99604.40;1758075;81;21831;-66
2022/01/03 00:47:20;;;;;;;5.50;3.35;;;;;;;-0.41;70.37;99611.19;1766793;80;20940;-66
2022/01/03 00:49:46;;;;;;;3.25;2.72;;;;;;;-0.38;70.44;99611.06;1744679;81;20981;-66
2022/01/03 00:52:13;;;;;;;4.00;2.95;;;;;;;-0.36;70.40;99617.48;1740734;82;21569;-66
2022/01/03 00:54:39;;;;;;;4.50;2.85;;;;;;;-0.33;70.43;99609.54;1735896;81;20936;-66
2022/01/03 00:57:15;;;;;;;5.85;2.77;;;;;;;-0.28;70.49;99604.16;1741282;81;21859;-66
2022/01/03 00:59:56;;;;;;;4.20;2.75;;;;;;;-0.26;70.53;99592.78;1755948;81;21075;-66
2022/01/03 01:02:23;;;;;;;3.75;2.55;;;;;;;-0.23;70.57;99595.22;1773268;80;21500;-67
2022/01/03 01:04:51;;;;;;;4.60;3.00;;;;;;;-0.20;70.60;99596.81;1733786;81;20976;-65
2022/01/03 01:07:18;;;;;;;4.30;2.77;;;;;;;-0.17;70.60;99578.06;1753879;81;21427;-67
2022/01/03 01:09:44;;;;;;;3.77;2.72;;;;;;;-0.13;70.58;99567.06;1782061;80;22482;-66
2022/01/03 01:12:10;;;;;;;4.45;3.00;;;;;;;-0.11;70.60;99541.88;1780972;80;21081;-66
2022/01/03 01:14:40;;;;;;;4.17;2.77;;;;;;;-0.09;70.57;99539.61;1735876;81;21004;-64
2022/01/03 01:17:08;;;;;;;3.85;2.55;;;;;;;-0.05;70.61;99528.61;1743221;81;21416;-65
2022/01/03 01:19:34;;;;;;;5.47;2.77;;;;;;;-0.05;70.44;99524.71;1723110;83;20993;-65
2022/01/03 01:22:01;;;;;;;3.55;2.27;;;;;;;-0.02;70.47;99509.81;1744078;81;21853;-65
2022/01/03 01:24:33;;;;;;;4.33;2.85;;;;;;;0.01;70.52;99489.83;1764633;81;20949;-65
2022/01/03 01:29:44;;;;;;;4.80;2.90;;;;;;;0.04;70.66;99452.86;1726762;82;21383;-66
2022/01/03 01:32:14;;;;;;;4.12;2.65;;;;;;;0.05;70.77;99440.72;1750155;81;21052;-67
2022/01/03 01:34:44;;;;;;;4.03;2.92;;;;;;;0.05;70.84;99432.47;1725733;81;21861;-67
2022/01/03 01:37:12;;;;;;;4.20;2.90;;;;;;;0.06;70.97;99422.46;1725714;80;20989;-65
2022/01/03 01:39:39;;;;;;;4.03;2.60;;;;;;;0.07;71.08;99415.51;1726071;81;20969;-65
2022/01/03 01:42:06;;;;;;;3.67;2.60;;;;;;;0.09;71.21;99427.48;1725518;81;21068;-65
2022/01/03 01:44:35;;;;;;;4.87;3.35;;;;;;;0.10;71.32;99420.56;1735056;81;20921;-66
2022/01/03 01:47:06;;;;;;;3.52;2.45;;;;;;;0.13;71.50;99413.91;1750850;81;21755;-66
2022/01/03 01:49:41;;;;;;;3.55;2.58;;;;;;;0.13;71.60;99399.63;1747494;81;21026;-66
2022/01/03 01:52:19;;;;;;;4.95;2.75;;;;;;;0.16;71.69;99393.80;1715302;82;20970;-65
2022/01/03 01:55:09;;;;;;;3.45;2.55;;;;;;;0.19;71.89;99385.00;1747677;81;20990;-66
2022/01/03 01:58:08;;;;;;;4.03;2.75;;;;;;;0.22;72.10;99387.00;1769224;81;20950;-65
2022/01/03 02:00:37;;;;;;;4.20;2.87;;;;;;;0.27;72.26;99380.25;1752271;80;22617;-66
2022/01/03 02:03:16;;;;;;;4.03;3.02;;;;;;;0.31;72.45;99368.80;1774230;80;21007;-66
2022/01/03 02:05:57;;;;;;;4.03;3.00;;;;;;;0.35;72.52;99369.00;1732002;81;21062;-65
2022/01/03 02:08:35;;;;;;;4.37;3.10;;;;;;;0.38;72.69;99342.84;1727040;81;21044;-65
2022/01/03 02:11:19;;;;;;;4.83;3.22;;;;;;;0.41;72.83;99336.20;1759928;81;20997;-66
2022/01/03 02:13:47;;;;;;;4.55;3.25;;;;;;;0.45;73.01;99333.81;1752742;81;21828;-65
2022/01/03 02:16:14;;;;;;;4.80;2.75;;;;;;;0.46;73.36;99328.98;1756096;81;21613;-65
2022/01/03 02:18:43;;;;;;;5.20;3.55;;;;;;;0.47;73.65;99320.73;1751421;80;21019;-65
2022/01/03 02:21:11;;;;;;;5.25;3.02;;;;;;;0.49;73.89;99300.27;1786373;80;20982;-65
2022/01/03 02:23:40;;;;;;;5.55;3.62;;;;;;;0.51;74.17;99298.88;1737244;81;20949;-66
2022/01/03 02:26:07;;;;;;;5.20;3.62;;;;;;;0.51;74.45;99292.37;1736179;81;21839;-65
2022/01/03 02:28:34;;;;;;;5.62;4.12;;;;;;;0.52;74.67;99271.50;1724187;80;21008;-65
2022/01/03 02:31:02;;;;;;;9.43;5.85;;;;;;;0.53;74.91;99259.34;1742208;81;20974;-65
2022/01/03 02:33:30;;;;;;;8.03;5.35;;;;;;;0.53;75.08;99248.49;1765770;81;20973;-65
2022/01/03 02:35:56;;;;;;;11.63;6.87;;;;;;;0.54;75.24;99236.34;1753972;81;21484;-66
2022/01/03 02:38:23;;;;;;;5.70;4.42;;;;;;;0.56;75.38;99245.72;1735595;81;22467;-66
2022/01/03 02:40:50;;;;;;;6.33;3.95;;;;;;;0.59;75.53;99239.99;1760190;80;21476;-66
2022/01/03 02:43:16;;;;;;;7.95;6.15;;;;;;;0.61;75.61;99237.67;1775727;80;21056;-66
2022/01/03 02:45:44;;;;;;;4.78;3.05;;;;;;;0.62;75.74;99246.30;1749351;80;21067;-66
2022/01/03 02:48:15;;;;;;;4.22;3.10;;;;;;;0.62;75.87;99246.30;1774289;80;20929;-66
2022/01/03 02:50:39;;;;;;;4.28;3.33;;;;;;;0.65;75.91;99233.97;1775508;80;21865;-66
2022/01/03 02:53:06;;;;;;;3.65;3.22;;;;;;;0.67;75.97;99229.97;1747557;80;21387;-66
2022/01/03 02:55:34;;;;;;;5.20;3.22;;;;;;;0.69;75.98;99238.55;1760533;80;21040;-66
2022/01/03 02:58:07;;;;;;;3.80;3.10;;;;;;;0.71;76.04;99240.13;1737306;80;21165;-66
2022/01/03 03:00:31;;;;;;;3.85;2.83;;;;;;;0.74;76.08;99236.04;1759412;80;20960;-66
2022/01/03 03:02:59;;;;;;;4.22;3.22;;;;;;;0.77;76.11;99228.52;1734010;81;21748;-66
2022/01/03 03:05:25;;;;;;;4.75;3.60;;;;;;;0.80;76.15;99206.27;1772940;79;21455;-65
2022/01/03 03:07:56;;;;;;;5.42;4.03;;;;;;;0.82;76.14;99201.35;1772178;80;20976;-65
2022/01/03 03:10:23;;;;;;;5.28;3.60;;;;;;;0.84;76.14;99200.80;1749697;80;21149;-66
2022/01/03 03:12:51;;;;;;;5.80;3.50;;;;;;;0.86;76.17;99185.94;1757632;80;20932;-66
2022/01/03 03:15:17;;;;;;;4.58;3.40;;;;;;;0.89;76.19;99189.31;1716161;81;22435;-66
2022/01/03 03:17:47;;;;;;;4.58;3.30;;;;;;;0.88;76.24;99180.67;1782070;80;21082;-67
2022/01/03 03:20:18;;;;;;;4.92;3.47;;;;;;;0.89;76.27;99174.55;1752076;80;21011;-66
2022/01/03 03:22:49;;;;;;;4.80;3.50;;;;;;;0.90;76.31;99164.52;1765328;80;21473;-66
2022/01/03 03:25:18;;;;;;;4.75;3.85;;;;;;;0.92;76.34;99161.36;1770671;80;21406;-66
2022/01/03 03:27:48;;;;;;;5.12;4.00;;;;;;;0.95;76.41;99149.93;1758063;80;21838;-67
2022/01/03 03:30:26;;;;;;;4.60;3.85;;;;;;;0.96;76.48;99145.94;1768303;80;21387;-66
2022/01/03 03:33:01;;;;;;;6.15;3.83;;;;;;;0.97;76.60;99144.20;1740353;82;21007;-66
2022/01/03 03:35:29;;;;;;;5.40;4.20;;;;;;;0.96;76.71;99129.03;1751803;80;21087;-65
2022/01/03 03:37:55;;;;;;;4.83;3.77;;;;;;;0.96;76.79;99130.34;1766763;80;21022;-65
2022/01/03 03:40:22;;;;;;;5.05;4.08;;;;;;;0.99;76.81;99124.14;1740564;80;22418;-65
2022/01/03 03:42:49;;;;;;;4.60;4.05;;;;;;;1.00;76.91;99121.45;1739232;82;20949;-65
2022/01/03 03:45:16;;;;;;;5.60;4.30;;;;;;;1.00;76.98;99117.55;1743605;80;21013;-65
2022/01/03 03:47:44;;;;;;;5.47;4.20;;;;;;;1.01;76.99;99107.52;1747944;81;21023;-65
2022/01/03 03:50:11;;;;;;;5.33;4.15;;;;;;;1.03;77.01;99110.02;1745026;81;20956;-66
2022/01/03 03:52:38;;;;;;;4.60;3.75;;;;;;;1.05;77.07;99097.75;1743674;81;21843;-66
2022/01/03 03:55:07;;;;;;;5.12;4.20;;;;;;;1.05;77.09;99093.84;1724822;81;21440;-66
2022/01/03 03:57:34;;;;;;;5.40;4.00;;;;;;;1.07;77.12;99094.15;1746465;81;21045;-65
2022/01/03 04:00:04;;;;;;;5.50;4.15;;;;;;;1.09;77.12;99097.95;1739864;81;20952;-66
2022/01/03 04:02:34;;;;;;;5.10;4.28;;;;;;;1.09;77.14;99083.19;1744617;81;21048;-66
2022/01/03 04:05:01;;;;;;;5.03;3.98;;;;;;;1.10;77.18;99074.91;1748054;80;21834;-66
2022/01/03 04:07:31;;;;;;;5.90;4.70;;;;;;;1.11;77.21;99073.98;1747572;81;20981;-66
2022/01/03 04:09:57;;;;;;;5.30;4.15;;;;;;;1.12;77.23;99089.48;1746875;81;20961;-66
2022/01/03 04:12:24;;;;;;;6.12;4.33;;;;;;;1.14;77.21;99079.82;1746020;81;21091;-66
2022/01/03 04:14:51;;;;;;;6.58;4.90;;;;;;;1.18;77.22;99071.38;1747012;81;21043;-66
2022/01/03 04:17:18;;;;;;;6.62;4.83;;;;;;;1.17;77.23;99046.31;1745230;81;22502;-66
2022/01/03 04:19:45;;;;;;;7.72;5.20;;;;;;;1.17;77.29;99035.08;1741126;81;20997;-66
2022/01/03 04:22:12;;;;;;;6.08;4.92;;;;;;;1.20;77.28;99034.88;1742791;81;21348;-66
2022/01/03 04:24:40;;;;;;;6.67;5.10;;;;;;;1.20;77.31;99034.88;1739333;80;20992;-67
2022/01/03 04:27:07;;;;;;;8.48;5.33;;;;;;;1.19;77.36;99032.74;1748462;80;20957;-66
2022/01/03 04:29:33;;;;;;;8.05;5.35;;;;;;;1.21;77.37;99039.14;1758836;80;21825;-66
2022/01/03 04:32:01;;;;;;;11.43;6.78;;;;;;;1.24;77.36;99019.44;1751522;80;21325;-66
2022/01/03 04:34:27;;;;;;;8.93;6.08;;;;;;;1.23;77.39;99008.20;1758496;80;20953;-66
2022/01/03 04:36:54;;;;;;;8.38;5.87;;;;;;;1.24;77.41;99007.27;1745818;80;21008;-66
2022/01/03 04:39:21;;;;;;;8.10;5.95;;;;;;;1.27;77.46;99015.36;1744035;80;20949;-66
2022/01/03 04:41:48;;;;;;;8.00;6.60;;;;;;;1.27;77.48;98999.30;1758779;80;21817;-66
2022/01/03 04:44:16;;;;;;;8.08;6.20;;;;;;;1.28;77.47;99000.13;1765075;80;21401;-65
2022/01/03 04:46:43;;;;;;;6.45;5.58;;;;;;;1.29;77.50;98996.59;1740116;80;21040;-66
2022/01/03 04:49:09;;;;;;;7.33;6.00;;;;;;;1.31;77.48;98991.65;1739097;80;21048;-65
2022/01/03 04:51:36;;;;;;;6.47;5.40;;;;;;;1.32;77.47;98980.77;1747990;80;21012;-66
2022/01/03 04:54:03;;;;;;;6.72;5.03;;;;;;;1.33;77.51;98979.84;1733140;80;21826;-66
2022/01/03 04:56:30;;;;;;;6.55;5.15;;;;;;;1.36;77.53;98969.27;1743014;81;20976;-66
2022/01/03 04:58:57;;;;;;;7.87;5.62;;;;;;;1.38;77.52;98972.13;1742835;80;21016;-66
2022/01/03 05:01:23;;;;;;;6.50;5.15;;;;;;;1.40;77.51;98955.95;1758786;80;21079;-66
2022/01/03 05:03:50;;;;;;;7.08;5.72;;;;;;;1.43;77.51;98951.00;1764726;80;20945;-66
2022/01/03 05:06:19;;;;;;;6.37;5.25;;;;;;;1.44;77.48;98954.80;1769485;79;21810;-66
2022/01/03 05:08:47;;;;;;;7.90;5.55;;;;;;;1.44;77.48;98948.77;1766679;80;20996;-66
2022/01/03 05:11:15;;;;;;;6.80;5.80;;;;;;;1.46;77.52;98944.79;1730692;82;21040;-65
2022/01/03 05:13:41;;;;;;;7.83;5.75;;;;;;;1.47;77.48;98930.38;1746312;80;20946;-65
2022/01/03 05:16:09;;;;;;;7.08;5.58;;;;;;;1.49;77.45;98932.88;1775941;80;20929;-66
2022/01/03 05:18:36;;;;;;;7.28;5.67;;;;;;;1.48;77.44;98934.64;1778095;80;21818;-66
2022/01/03 05:21:04;;;;;;;8.75;6.00;;;;;;;1.49;77.44;98922.46;1757088;80;21479;-66
2022/01/03 05:23:32;;;;;;;9.75;6.45;;;;;;;1.50;77.45;98922.83;1749751;81;21008;-66
2022/01/03 05:26:00;;;;;;;8.03;6.10;;;;;;;1.49;77.44;98920.69;1734396;82;21395;-66
2022/01/03 05:28:29;;;;;;;7.92;5.95;;;;;;;1.50;77.46;98924.96;1725899;80;20957;-66
2022/01/03 05:30:57;;;;;;;7.67;5.92;;;;;;;1.52;77.49;98924.85;1733057;81;21833;-65
2022/01/03 05:33:25;;;;;;;8.55;6.25;;;;;;;1.53;77.50;98914.81;1746174;80;21423;-65
2022/01/03 05:35:51;;;;;;;7.30;6.17;;;;;;;1.54;77.51;98912.57;1737039;82;20980;-65
2022/01/03 05:38:20;;;;;;;7.65;5.83;;;;;;;1.55;77.53;98910.36;1743083;80;21044;-65
2022/01/03 05:40:46;;;;;;;7.25;6.08;;;;;;;1.57;77.51;98909.79;1756966;80;21451;-66
2022/01/03 05:43:14;;;;;;;8.15;6.17;;;;;;;1.59;77.51;98909.22;1737571;82;21757;-66
2022/01/03 05:45:41;;;;;;;7.72;6.28;;;;;;;1.60;77.49;98905.67;1739771;80;20904;-66
2022/01/03 05:48:08;;;;;;;6.60;5.60;;;;;;;1.60;77.48;98913.48;1745112;80;20948;-66
2022/01/03 05:50:35;;;;;;;8.23;6.30;;;;;;;1.61;77.48;98916.45;1736595;81;21013;-66
2022/01/03 05:53:02;;;;;;;8.45;6.08;;;;;;;1.61;77.45;98916.45;1756552;80;21530;-66
2022/01/03 05:55:28;;;;;;;8.10;6.42;;;;;;;1.62;77.49;98921.55;1754239;80;21904;-66
2022/01/03 05:57:55;;;;;;;7.75;6.33;;;;;;;1.62;77.46;98917.64;1775510;80;21020;-66
2022/01/03 06:00:26;;;;;;;7.33;5.80;;;;;;;1.63;77.46;98926.28;1764029;80;20992;-66
2022/01/03 06:02:57;;;;;;;8.58;6.53;;;;;;;1.62;77.47;98922.84;1733325;82;20988;-66
2022/01/03 06:08:05;;;;;;;7.55;6.17;;;;;;;1.63;77.52;98920.61;1689540;82;21488;-66
2022/01/03 06:10:34;;;;;;;8.05;6.20;;;;;;;1.64;77.54;98910.59;1752807;80;21032;-66
2022/01/03 06:13:02;;;;;;;8.35;6.67;;;;;;;1.64;77.57;98910.59;1742406;80;21456;-66
2022/01/03 06:15:29;;;;;;;6.92;6.10;;;;;;;1.64;77.60;98896.72;1751740;79;21016;-66
2022/01/03 06:17:56;;;;;;;6.78;5.75;;;;;;;1.66;77.61;98884.46;1732490;82;21028;-65
2022/01/03 06:20:24;;;;;;;8.73;6.58;;;;;;;1.66;77.66;98886.59;1733095;80;22631;-65
2022/01/03 06:22:51;;;;;;;8.13;6.47;;;;;;;1.68;77.65;98896.89;1737260;81;21406;-65
2022/01/03 06:25:19;;;;;;;7.12;6.10;;;;;;;1.68;77.69;98883.88;1721199;80;20952;-67
2022/01/03 06:27:47;;;;;;;7.75;6.33;;;;;;;1.68;77.67;98886.02;1740991;80;21024;-66
2022/01/03 06:30:13;;;;;;;6.83;5.97;;;;;;;1.68;77.68;98867.80;1742577;80;21055;-66
2022/01/03 06:32:42;;;;;;;7.22;5.87;;;;;;;1.70;77.69;98885.44;1718458;83;21844;-66
2022/01/03 06:35:09;;;;;;;9.55;6.97;;;;;;;1.72;77.70;98878.83;1726228;81;20993;-66
2022/01/03 06:37:36;;;;;;;7.47;6.15;;;;;;;1.74;77.72;98870.47;1739194;80;21518;-65
2022/01/03 06:40:12;;;;;;;8.20;6.40;;;;;;;1.76;77.75;98877.70;1759500;80;21024;-65
2022/01/03 06:42:39;;;;;;;8.00;6.40;;;;;;;1.79;77.79;98861.03;1738014;80;20969;-67
2022/01/03 06:45:07;;;;;;;8.50;6.22;;;;;;;1.82;77.78;98880.34;1761867;80;21937;-65
2022/01/03 06:47:34;;;;;;;8.70;6.40;;;;;;;1.85;77.77;98868.44;1741987;80;20980;-65
2022/01/03 06:50:01;;;;;;;6.95;5.83;;;;;;;1.86;77.75;98863.13;1742455;80;20963;-66
2022/01/03 06:52:30;;;;;;;8.83;6.80;;;;;;;1.90;77.75;98861.97;1736362;80;21372;-65
2022/01/03 06:54:56;;;;;;;10.23;7.08;;;;;;;1.93;77.75;98861.78;1737090;80;21051;-66
2022/01/03 06:57:23;;;;;;;11.45;8.50;;;;;;;1.97;77.72;98848.91;1765457;80;21891;-66
2022/01/03 06:59:50;;;;;;;9.13;7.47;;;;;;;2.01;77.70;98832.12;1751588;80;20980;-66
2022/01/03 07:02:18;;;;;;;8.68;7.22;;;;;;;2.06;77.67;98849.22;1737095;80;21013;-66
2022/01/03 07:04:45;;;;;;;9.40;6.87;;;;;;;2.09;77.62;98823.78;1738942;80;21511;-66
2022/01/03 07:07:12;;;;;;;10.55;6.80;;;;;;;2.13;77.56;98823.12;1738717;80;21319;-66
2022/01/03 07:09:38;;;;;;;8.85;6.42;;;;;;;2.15;77.50;98823.37;1727689;82;21447;-66
2022/01/03 07:12:07;;;;;;;7.87;6.65;;;;;;;2.17;77.46;98821.48;1720284;80;21087;-67
2022/01/03 07:19:53;;;;;;;12.75;9.73;;;;;;;2.26;77.33;98829.13;1714380;82;20988;-66
2022/01/03 07:22:19;;;;;;;9.60;7.10;;;;;;;2.28;77.27;98818.95;1756890;80;21812;-66
2022/01/03 07:24:46;;;;;;;11.05;7.35;;;;;;;2.31;77.22;98825.72;1768360;80;21118;-66
2022/01/03 07:27:14;;;;;;;13.50;9.18;;;;;;;2.35;77.17;98824.58;1758740;81;21534;-65
2022/01/03 07:29:41;;;;;;;17.15;11.65;;;;;;;2.40;77.10;98826.38;1754495;81;20956;-66
2022/01/03 07:32:08;;;;;;;13.62;9.55;;;;;;;2.43;77.04;98821.44;1754241;80;21441;-66
2022/01/03 07:34:35;;;;;;;10.18;7.87;;;;;;;2.45;76.98;98817.77;1745063;80;21815;-66
2022/01/03 07:37:03;;;;;;;9.30;7.15;;;;;;;2.49;76.90;98816.60;1723776;81;21103;-64
2022/01/03 07:39:31;;;;;;;8.03;6.33;;;;;;;2.53;76.81;98815.93;1745799;80;20957;-66
2022/01/03 07:41:58;;;;;;;8.60;6.83;;;;;;;2.56;76.78;98801.37;1736998;81;20991;-66
2022/01/03 07:44:26;;;;;;;9.30;7.00;;;;;;;2.58;76.72;98805.99;1740412;80;21040;-65
2022/01/03 07:46:54;;;;;;;10.18;7.75;;;;;;;2.61;76.65;98808.41;1747337;80;21785;-65
2022/01/03 07:49:21;;;;;;;9.50;7.37;;;;;;;2.65;76.64;98818.13;1756372;81;20862;-65
2022/01/03 07:51:49;;;;;;;9.28;7.12;;;;;;;2.67;76.57;98802.73;1755317;80;20993;-66
2022/01/03 07:54:15;;;;;;;9.58;7.12;;;;;;;2.70;76.53;98812.95;1766812;80;21000;-66
2022/01/03 07:56:42;;;;;;;9.95;7.03;;;;;;;2.75;76.48;98793.06;1769370;80;20937;-65
2022/01/03 07:59:08;;;;;;;8.48;6.80;;;;;;;2.78;76.46;98789.75;1749991;82;22628;-65
2022/01/03 08:01:37;;;;;;;9.55;7.15;;;;;;;2.83;76.40;98765.48;1724428;82;21008;-66
2022/01/03 08:04:04;;;;;;;8.80;7.28;;;;;;;2.88;76.39;98760.75;1721771;82;21040;-65
2022/01/03 08:06:30;;;;;;;12.10;7.95;;;;;;;2.98;76.44;98749.64;1738094;80;20997;-65
2022/01/03 08:08:58;;;;;;;13.62;10.53;;;;;;;3.07;76.46;98719.79;1720840;82;21052;-65
2022/01/03 08:11:26;;;;;;;10.08;8.00;;;;;;;3.16;76.44;98723.02;1743706;81;22558;-65
2022/01/03 08:13:53;;;;;;;8.25;6.75;;;;;;;3.25;76.40;98742.84;1756249;80;21051;-66
2022/01/03 08:16:20;;;;;;;9.33;6.83;;;;;;;3.33;76.37;98741.80;1791742;80;20921;-66
2022/01/03 08:18:47;;;;;;;9.40;7.45;;;;;;;3.39;76.20;98735.64;1759049;80;21008;-65
2022/01/03 08:21:14;;;;;;;9.70;7.03;;;;;;;3.44;76.09;98749.16;1783277;80;21007;-65
2022/01/03 08:23:40;;;;;;;13.40;8.88;;;;;;;3.49;75.84;98745.39;1728930;80;21785;-66
2022/01/03 08:26:07;;;;;;;10.40;8.20;;;;;;;3.49;75.67;98739.69;1764503;80;21475;-66
2022/01/03 08:28:33;;;;;;;9.30;7.28;;;;;;;3.52;75.62;98738.62;1766037;80;21485;-66
2022/01/03 08:30:59;;;;;;;10.58;7.90;;;;;;;3.56;75.55;98737.42;1755341;80;20996;-66
2022/01/03 08:33:26;;;;;;;11.78;8.18;;;;;;;3.61;75.51;98738.74;1766790;80;20981;-65
2022/01/03 08:35:53;;;;;;;14.47;11.12;;;;;;;3.66;75.38;98750.13;1765000;80;21827;-65
2022/01/03 08:38:19;;;;;;;13.95;10.43;;;;;;;3.69;75.21;98734.24;1785293;80;21032;-64
2022/01/03 08:40:46;;;;;;;13.25;10.35;;;;;;;3.70;75.04;98720.23;1769108;80;21434;-66
2022/01/03 08:43:13;;;;;;;9.75;7.90;;;;;;;3.72;74.96;98718.33;1744932;80;21041;-67
2022/01/03 08:45:39;;;;;;;9.93;7.40;;;;;;;3.72;74.85;98716.55;1767560;80;20941;-66
2022/01/03 08:48:06;;;;;;;13.68;9.90;;;;;;;3.76;74.79;98721.52;1766388;80;21849;-66
2022/01/03 08:50:32;;;;;;;11.80;9.65;;;;;;;3.75;74.67;98710.25;1773745;80;20936;-66
2022/01/03 08:52:59;;;;;;;10.63;8.33;;;;;;;3.77;74.61;98720.59;1775091;80;20988;-67
2022/01/03 08:55:25;;;;;;;11.70;8.03;;;;;;;3.76;74.51;98719.74;1758185;81;21454;-67
2022/01/03 08:57:52;;;;;;;11.33;8.10;;;;;;;3.73;74.44;98716.07;1769781;80;21399;-65
2022/01/03 09:00:19;;;;;;;10.93;8.63;;;;;;;3.71;74.41;98716.67;1760293;80;21753;-65
2022/01/03 09:02:47;;;;;;;10.18;7.72;;;;;;;3.70;74.37;98708.48;1757956;80;21048;-65
2022/01/03 09:05:13;;;;;;;9.70;7.45;;;;;;;3.68;74.37;98709.09;1765346;80;21068;-66
2022/01/03 09:07:40;;;;;;;11.25;7.67;;;;;;;3.66;74.37;98698.73;1728808;81;20992;-66
2022/01/03 09:10:07;;;;;;;11.70;7.08;;;;;;;3.67;74.41;98693.06;1756024;81;21063;-67
2022/01/03 09:12:33;;;;;;;11.22;7.75;;;;;;;3.66;74.41;98697.43;1784486;80;21878;-66
2022/01/03 09:15:01;;;;;;;14.93;11.22;;;;;;;3.68;74.42;98699.47;1791114;80;21059;-67
2022/01/03 09:17:29;;;;;;;11.15;8.50;;;;;;;3.69;74.44;98688.08;1783761;80;21424;-66
2022/01/03 09:19:57;;;;;;;12.63;8.70;;;;;;;3.70;74.41;98690.21;1769750;80;21090;-66
2022/01/03 09:22:31;;;;;;;14.43;9.65;;;;;;;3.70;74.41;98678.46;1739195;81;20997;-66
2022/01/03 09:30:14;;;;;;;19.32;13.48;;;;;;;3.81;74.62;98661.47;1742425;81;21040;-66
2022/01/03 09:32:44;;;;;;;12.53;9.30;;;;;;;3.88;74.60;98656.60;1743479;81;21032;-67
2022/01/03 09:35:11;;;;;;;15.30;11.95;;;;;;;3.93;74.56;98653.13;1743760;81;21130;-67
2022/01/03 09:37:40;;;;;;;19.40;14.55;;;;;;;3.98;74.58;98649.22;1739480;81;21849;-67
2022/01/03 09:40:08;;;;;;;14.03;10.53;;;;;;;4.05;74.58;98637.78;1741200;80;21023;-67
2022/01/03 09:42:37;;;;;;;11.90;8.93;;;;;;;4.11;74.50;98630.77;1741809;81;21526;-67
2022/01/03 09:45:08;;;;;;;19.12;11.12;;;;;;;4.17;74.46;98639.91;1748402;80;21396;-65
2022/01/03 09:47:42;;;;;;;14.45;10.58;;;;;;;4.24;74.43;98640.56;1747088;81;21086;-66
2022/01/03 09:50:10;;;;;;;13.55;8.80;;;;;;;4.30;74.39;98634.85;1750264;81;21819;-67
2022/01/03 09:52:36;;;;;;;11.10;8.10;;;;;;;4.38;74.44;98638.16;1736256;81;21051;-67
2022/01/03 09:55:05;;;;;;;10.30;7.45;;;;;;;4.51;74.55;98628.82;1749818;81;21028;-68
2022/01/03 09:57:34;;;;;;;10.75;7.50;;;;;;;4.68;74.48;98628.27;1747192;81;21043;-68
2022/01/03 10:00:00;;;;;;;10.28;6.62;;;;;;;4.85;74.40;98606.77;1728788;81;21070;-67
2022/01/03 10:02:27;;;;;;;10.20;6.70;;;;;;;5.01;74.21;98610.21;1732017;81;21824;-68
2022/01/03 10:04:54;;;;;;;10.85;7.22;;;;;;;5.16;73.78;98594.53;1750391;80;20913;-68
2022/01/03 10:07:21;;;;;;;10.60;7.80;;;;;;;5.32;73.40;98591.44;1750877;80;21035;-69
2022/01/03 10:09:48;;;;;;;11.18;7.75;;;;;;;5.42;73.06;98589.67;1742439;80;21027;-68
2022/01/03 10:12:16;;;;;;;12.18;7.25;;;;;;;5.53;72.73;98588.74;1741492;80;21481;-67
2022/01/03 10:14:45;;;;;;;12.37;6.97;;;;;;;5.60;72.42;98588.56;1733453;82;21007;-68
2022/01/03 10:17:11;;;;;;;9.88;6.10;;;;;;;5.66;72.19;98576.22;1736300;81;21094;-67
2022/01/03 10:19:56;;;;;;;10.90;7.62;;;;;;;5.71;71.89;98573.22;1763021;81;21437;-68
2022/01/03 10:22:25;;;;;;;;;;;;;;;5.77;71.65;98564.80;1730499;81;21042;-67
2022/01/03 10:24:52;;;;;;;8.85;5.95;;;;;;;5.83;71.48;98569.50;1731603;81;20165;-68
2022/01/03 10:27:21;;;;;;;11.97;8.23;;;;;;;5.87;71.44;98565.63;1753710;80;22774;-67
2022/01/03 10:29:58;;;;;;;11.75;8.55;;;;;;;5.93;71.26;98562.52;1740743;81;20951;-68
2022/01/03 10:32:30;;;;;;;11.73;7.72;;;;;;;6.00;71.17;98567.56;1754258;80;21060;-68
2022/01/03 10:34:58;;;;;;;11.40;8.20;;;;;;;6.10;70.95;98557.08;1705886;82;21059;-68
2022/01/03 10:37:36;;;;;;;11.00;7.40;;;;;;;6.19;70.78;98551.02;1734720;80;21000;-68
2022/01/03 10:40:27;;;;;;;11.68;8.58;;;;;;;6.27;70.65;98551.16;1738194;80;21752;-68
2022/01/03 10:42:58;;;;;;;20.25;14.03;;;;;;;6.33;70.49;98551.06;1749877;80;21495;-68
2022/01/03 10:45:33;;;;;;;13.72;9.55;;;;;;;6.40;70.33;98546.92;1784985;80;21039;-66
2022/01/03 10:48:01;;;;;;;9.83;7.62;;;;;;;6.46;70.17;98551.58;1791224;80;21043;-66
2022/01/03 10:50:27;;;;;;;10.20;7.60;;;;;;;6.53;70.07;98536.95;1753082;81;21588;-67
2022/01/03 10:52:54;;;;;;;10.98;7.65;;;;;;;6.61;69.89;98534.94;1749468;81;22455;-67
2022/01/03 10:55:33;;;;;;;11.12;8.05;;;;;;;6.68;69.77;98526.84;1753574;80;21491;-68
2022/01/03 10:58:00;;;;;;;9.10;6.15;;;;;;;6.72;69.70;98517.72;1749489;80;21002;-67
2022/01/03 11:00:34;;;;;;;9.30;6.72;;;;;;;6.77;69.52;98514.67;1769158;80;21020;-68
2022/01/03 11:03:35;;;;;;;15.35;10.00;;;;;;;6.83;69.42;98516.71;1748662;80;21036;-68
2022/01/03 11:06:12;;;;;;;10.80;7.15;;;;;;;6.87;69.23;98512.36;1749873;80;21820;-66
2022/01/03 11:11:15;;;;;;;12.40;8.30;;;;;;;6.93;68.95;98508.31;1760111;80;21031;-67
2022/01/03 11:13:47;;;;;;;13.40;8.70;;;;;;;6.96;68.80;98511.16;1752058;80;21042;-65
2022/01/03 11:16:13;;;;;;;10.90;7.95;;;;;;;6.96;68.70;98508.05;1765127;80;21814;-65
2022/01/03 11:18:46;;;;;;;17.37;11.15;;;;;;;6.98;68.70;98505.27;1771200;80;21828;-66
2022/01/03 11:21:19;;;;;;;19.27;11.55;;;;;;;6.96;68.58;98506.73;1750155;80;21008;-65
2022/01/03 11:24:02;;;;;;;43.55;22.10;;;;;;;6.94;68.58;98499.95;1773333;79;21027;-66
2022/01/03 11:26:33;;;;;;;53.47;25.77;;;;;;;6.94;68.64;98504.72;1767577;80;20996;-67
2022/01/03 11:29:03;;;;;;;33.28;18.00;;;;;;;6.95;68.68;98497.20;1769348;79;21039;-67
2022/01/03 11:31:38;;;;;;;21.35;13.05;;;;;;;6.97;68.67;98502.31;1761351;80;20948;-68
2022/01/03 11:34:02;;;;;;;19.62;13.20;;;;;;;6.99;68.70;98502.50;1782950;80;21426;-69
2022/01/03 11:36:29;;;;;;;14.03;9.20;;;;;;;7.02;68.69;98498.75;1738794;80;21059;-67
2022/01/03 11:38:59;;;;;;;18.30;10.85;;;;;;;7.04;68.67;98488.92;1794032;80;21069;-66
2022/01/03 11:41:26;;;;;;;18.02;9.58;;;;;;;7.08;68.58;98492.44;1745501;80;21032;-68
2022/01/03 11:43:53;;;;;;;16.40;9.48;;;;;;;7.14;68.59;98483.99;1756927;80;22600;-66
2022/01/03 11:46:20;;;;;;;11.93;7.83;;;;;;;7.20;68.52;98482.56;1679810;84;20965;-67
2022/01/03 11:48:47;;;;;;;13.35;7.62;;;;;;;7.27;68.38;98484.13;1744317;80;20985;-65
2022/01/03 11:51:14;;;;;;;10.40;7.03;;;;;;;7.32;68.17;98481.38;1779012;80;21521;-65
2022/01/03 11:53:47;;;;;;;11.95;6.95;;;;;;;7.37;67.97;98480.95;1749769;80;20957;-66
2022/01/03 11:56:17;;;;;;;10.15;6.55;;;;;;;7.40;67.84;98474.08;1759308;80;21814;-72
2022/01/03 11:59:02;;;;;;;9.83;6.50;;;;;;;7.40;67.74;98469.66;1756834;80;20924;-73
2022/01/03 12:04:21;;;;;;;9.73;6.37;;;;;;;7.48;67.66;98463.66;1751172;80;21175;-71